Time;durP1;ratioP1;P1;durP2;ratioP2;P2;SDS_P1;SDS_P2;PMS_P1;PMS_P2;Temp;Humidity;BMP_temperature;BMP_pressure;BME280_temperature;BME280_humidity;BME280_pressure;Samples;Min_cycle;Max_cycle;Signal;HPM_P1;HPM_P2
2021/12/06 00:01:08;;;;;;;21.95;11.85;;;;;;;5.09;84.00;92470.28;5079530;28;20052;-44
2021/12/06 00:03:44;;;;;;;18.65;12.15;;;;;;;5.16;83.64;92486.00;5079523;28;20035;-44
2021/12/06 00:06:11;;;;;;;16.45;10.18;;;;;;;5.08;83.63;92477.00;5078396;28;20021;-44
2021/12/06 00:08:37;;;;;;;16.23;9.93;;;;;;;5.03;82.76;92469.66;5078023;28;20055;-47
2021/12/06 00:11:07;;;;;;;14.80;9.95;;;;;;;4.89;83.53;92488.19;5081263;28;20514;-47
2021/12/06 00:13:35;;;;;;;15.95;10.15;;;;;;;4.84;83.45;92482.84;5077943;28;20037;-46
2021/12/06 00:16:06;;;;;;;17.27;10.52;;;;;;;4.79;84.12;92494.66;5078429;28;20112;-44
2021/12/06 00:18:31;;;;;;;15.20;9.90;;;;;;;4.76;83.98;92491.00;5082174;28;20040;-44
2021/12/06 00:20:57;;;;;;;19.25;11.00;;;;;;;4.75;84.40;92494.25;5077398;28;20039;-43
2021/12/06 00:23:23;;;;;;;19.38;10.68;;;;;;;4.79;84.37;92486.44;5076787;28;20019;-46
2021/12/06 00:25:48;;;;;;;22.20;11.75;;;;;;;4.80;84.45;92480.47;5079704;28;20578;-44
2021/12/06 00:28:14;;;;;;;28.63;14.52;;;;;;;4.76;84.78;92469.13;5076735;28;20426;-42
2021/12/06 00:30:39;;;;;;;21.40;12.35;;;;;;;4.83;84.49;92470.44;5076283;28;20125;-42
2021/12/06 00:33:05;;;;;;;18.10;10.38;;;;;;;4.83;84.05;92467.72;5077730;28;20408;-41
2021/12/06 00:35:31;;;;;;;23.65;12.85;;;;;;;4.75;84.29;92464.16;5080164;28;20128;-41
2021/12/06 00:37:58;;;;;;;22.50;10.30;;;;;;;4.69;84.66;92449.91;5079975;28;20039;-40
2021/12/06 00:40:42;;;;;;;20.60;11.20;;;;;;;4.65;84.73;92460.47;5077917;28;20131;-42
2021/12/06 00:43:08;;;;;;;17.65;10.45;;;;;;;4.63;85.10;92461.72;5078312;28;20452;-44
2021/12/06 00:45:35;;;;;;;23.23;13.43;;;;;;;4.51;84.79;92430.47;5079103;28;20020;-42
2021/12/06 00:48:01;;;;;;;17.98;11.80;;;;;;;4.71;84.17;92463.78;5076796;28;20066;-45
2021/12/06 00:50:30;;;;;;;18.08;11.13;;;;;;;4.68;84.84;92478.53;5074696;28;20033;-44
2021/12/06 00:52:55;;;;;;;20.57;12.13;;;;;;;4.67;84.79;92485.25;5077420;28;20413;-47
2021/12/06 00:55:22;;;;;;;18.42;11.52;;;;;;;4.76;84.85;92493.72;5080551;28;20020;-44
2021/12/06 00:57:49;;;;;;;23.80;14.80;;;;;;;4.88;84.43;92491.44;5078034;28;20024;-44
2021/12/06 01:00:37;;;;;;;19.25;12.30;;;;;;;4.98;83.86;92490.44;5078897;28;20024;-42
2021/12/06 01:03:06;;;;;;;19.17;9.63;;;;;;;5.02;83.45;92490.09;5070130;28;20041;-44
2021/12/06 01:05:32;;;;;;;19.52;12.57;;;;;;;5.05;82.94;92483.53;5078180;28;20114;-44
2021/12/06 01:07:58;;;;;;;26.83;12.43;;;;;;;5.06;82.93;92479.56;5077278;28;20733;-42
2021/12/06 01:10:25;;;;;;;21.27;13.65;;;;;;;5.24;82.12;92473.13;5076689;28;20065;-43
2021/12/06 01:12:52;;;;;;;17.95;11.82;;;;;;;5.27;81.81;92477.50;5079787;28;20032;-42
2021/12/06 01:15:17;;;;;;;18.60;11.50;;;;;;;5.28;81.53;92482.44;5075713;28;20105;-42
2021/12/06 01:17:44;;;;;;;23.88;13.75;;;;;;;5.23;81.94;92480.59;5076486;28;20111;-41
2021/12/06 01:20:12;;;;;;;23.48;13.57;;;;;;;5.29;81.42;92478.44;5077183;28;20040;-42
2021/12/06 01:22:50;;;;;;;18.38;11.80;;;;;;;5.23;81.69;92466.16;5077449;28;20101;-41
2021/12/06 01:25:45;;;;;;;16.70;10.57;;;;;;;5.18;81.50;92472.50;5079227;28;20417;-42
2021/12/06 01:41:07;;;;;;;17.52;10.85;;;;;;;5.03;83.00;92464.94;5077822;28;20030;-41
2021/12/06 01:43:33;;;;;;;18.73;10.32;;;;;;;5.04;82.94;92471.16;5078320;28;20033;-42
2021/12/06 01:45:58;;;;;;;21.63;13.57;;;;;;;5.00;83.22;92463.28;5078316;28;20055;-40
2021/12/06 01:48:24;;;;;;;20.63;12.10;;;;;;;5.11;83.38;92459.53;5079011;28;20028;-43
2021/12/06 01:50:49;;;;;;;17.75;11.25;;;;;;;5.09;82.75;92464.81;5080865;28;20123;-42
2021/12/06 01:53:15;;;;;;;16.15;10.48;;;;;;;5.14;82.87;92450.97;5079962;28;20081;-41
2021/12/06 01:55:41;;;;;;;16.90;10.20;;;;;;;5.17;82.52;92440.97;5079774;28;20029;-43
2021/12/06 01:58:08;;;;;;;15.48;10.65;;;;;;;5.26;81.51;92424.75;5081083;28;20101;-39
2021/12/06 02:00:59;;;;;;;15.68;9.35;;;;;;;5.18;81.96;92426.75;5081418;28;20032;-39
2021/12/06 02:03:25;;;;;;;14.75;9.05;;;;;;;5.23;81.59;92405.97;5077348;28;20062;-39
2021/12/06 02:05:51;;;;;;;13.65;9.82;;;;;;;5.27;81.99;92411.81;5080458;28;20405;-40
2021/12/06 02:08:17;;;;;;;16.45;9.68;;;;;;;5.27;82.32;92411.81;5079770;28;20048;-38
2021/12/06 02:10:43;;;;;;;13.50;9.90;;;;;;;5.27;81.47;92409.81;5081693;28;20032;-38
2021/12/06 02:13:09;;;;;;;15.90;10.02;;;;;;;5.20;82.19;92407.78;5078262;28;20040;-39
2021/12/06 02:15:42;;;;;;;20.70;10.55;;;;;;;5.13;82.10;92394.06;5079710;28;21234;-47
2021/12/06 02:18:16;;;;;;;15.13;10.10;;;;;;;4.86;82.85;92384.59;5080357;28;20413;-44
2021/12/06 02:20:50;;;;;;;15.10;8.18;;;;;;;4.80;83.19;92384.75;5078602;28;20116;-47
2021/12/06 02:23:17;;;;;;;14.43;10.20;;;;;;;4.66;84.03;92377.19;5078588;28;20056;-44
2021/12/06 02:25:43;;;;;;;17.77;11.52;;;;;;;4.51;84.00;92378.53;5082522;28;20033;-39
2021/12/06 02:28:09;;;;;;;14.55;9.57;;;;;;;4.30;84.77;92358.69;5081098;28;20029;-40
2021/12/06 02:30:34;;;;;;;14.20;9.30;;;;;;;4.53;84.27;92389.66;5081262;28;20055;-40
2021/12/06 02:33:00;;;;;;;16.35;9.48;;;;;;;4.49;84.50;92400.19;5080453;28;20093;-39
2021/12/06 02:35:27;;;;;;;17.40;9.98;;;;;;;4.41;84.33;92413.06;5081050;28;20056;-41
2021/12/06 02:37:53;;;;;;;20.33;10.35;;;;;;;4.42;84.46;92411.78;5080425;28;20114;-44
2021/12/06 02:40:22;;;;;;;19.80;11.38;;;;;;;4.41;84.45;92399.41;5079099;28;20477;-41
2021/12/06 02:42:49;;;;;;;21.00;10.85;;;;;;;4.40;84.60;92402.66;5081548;28;20425;-42
2021/12/06 02:45:17;;;;;;;16.40;11.35;;;;;;;4.46;83.84;92412.19;5082844;28;20032;-41
2021/12/06 02:47:43;;;;;;;17.75;12.00;;;;;;;4.33;84.70;92414.28;5081415;28;20041;-41
2021/12/06 02:50:10;;;;;;;23.15;10.85;;;;;;;4.34;85.16;92408.28;5081421;28;20040;-41
2021/12/06 02:52:38;;;;;;;20.48;9.80;;;;;;;4.40;85.32;92397.94;5076877;28;20027;-40
2021/12/06 02:55:13;;;;;;;15.00;10.20;;;;;;;4.49;84.86;92400.19;5076196;28;20044;-43
2021/12/06 02:57:38;;;;;;;16.00;10.60;;;;;;;4.47;84.61;92389.06;5079706;28;20040;-39
2021/12/06 03:00:10;;;;;;;19.13;9.98;;;;;;;4.26;84.75;92391.09;5080502;28;20024;-40
2021/12/06 03:02:36;;;;;;;17.20;10.27;;;;;;;4.26;85.39;92379.41;5080907;28;20032;-39
2021/12/06 03:05:02;;;;;;;18.00;9.80;;;;;;;4.27;84.64;92376.16;5081077;28;20020;-39
2021/12/06 03:07:28;;;;;;;21.88;12.40;;;;;;;4.20;85.46;92379.53;5075757;28;20024;-39
2021/12/06 03:09:56;;;;;;;20.83;11.80;;;;;;;4.21;86.20;92372.81;5078303;28;20028;-39
2021/12/06 03:12:25;;;;;;;19.80;13.48;;;;;;;4.21;86.47;92375.56;5078900;28;20082;-39
2021/12/06 03:14:56;;;;;;;20.35;12.70;;;;;;;4.14;86.53;92378.22;5082431;28;20131;-39
2021/12/06 03:17:25;;;;;;;15.98;11.07;;;;;;;4.23;86.80;92369.56;5079140;28;20031;-41
2021/12/06 03:19:51;;;;;;;17.92;10.77;;;;;;;4.14;86.59;92367.28;5079723;28;20671;-40
2021/12/06 03:22:17;;;;;;;18.63;11.38;;;;;;;4.10;86.35;92364.16;5077435;28;20076;-40
2021/12/06 03:24:44;;;;;;;17.85;10.85;;;;;;;4.12;85.96;92365.09;5081658;28;20639;-40
2021/12/06 03:27:11;;;;;;;23.13;12.85;;;;;;;4.28;86.46;92363.22;5079989;28;20089;-39
2021/12/06 03:29:36;;;;;;;20.92;13.63;;;;;;;4.25;86.59;92364.28;5079906;28;20107;-39
2021/12/06 03:32:03;;;;;;;24.60;13.88;;;;;;;4.28;87.37;92353.03;5081006;28;20107;-41
2021/12/06 03:34:29;;;;;;;22.15;13.48;;;;;;;4.45;87.00;92358.81;5081580;28;20032;-43
2021/12/06 03:36:57;;;;;;;19.85;11.68;;;;;;;4.48;86.59;92373.41;5078435;28;20115;-42
2021/12/06 03:39:29;;;;;;;22.45;12.65;;;;;;;4.55;86.35;92383.66;5078203;28;20084;-39
2021/12/06 03:41:58;;;;;;;21.15;13.25;;;;;;;4.54;86.23;92382.94;5078423;28;20035;-39
2021/12/06 03:44:24;;;;;;;24.88;13.65;;;;;;;4.52;86.40;92377.28;5077722;28;20073;-38
2021/12/06 03:46:56;;;;;;;20.02;12.60;;;;;;;4.66;86.25;92385.38;5078387;28;20032;-39
2021/12/06 03:49:21;;;;;;;19.17;11.88;;;;;;;4.65;85.85;92403.03;5074913;28;20026;-40
2021/12/06 03:51:47;;;;;;;18.88;12.43;;;;;;;4.72;85.59;92413.31;5076913;28;20467;-41
2021/12/06 03:54:16;;;;;;;24.50;12.98;;;;;;;4.76;85.13;92413.69;5078951;28;20042;-42
2021/12/06 03:56:42;;;;;;;19.90;12.35;;;;;;;4.81;85.20;92416.28;5079290;28;20059;-41
2021/12/06 03:59:08;;;;;;;21.75;12.82;;;;;;;4.82;84.84;92417.75;5078951;28;20020;-40
2021/12/06 04:01:34;;;;;;;16.98;11.07;;;;;;;4.71;84.73;92407.09;5080520;28;20024;-43
2021/12/06 04:04:01;;;;;;;18.95;10.60;;;;;;;4.73;84.39;92390.16;5078480;28;20489;-42
2021/12/06 04:06:27;;;;;;;16.38;9.52;;;;;;;4.85;83.96;92389.31;5076820;28;20043;-45
2021/12/06 04:08:53;;;;;;;18.70;11.63;;;;;;;4.80;84.01;92392.22;5078019;28;20027;-41
2021/12/06 04:11:18;;;;;;;23.90;13.40;;;;;;;4.91;83.58;92391.94;5076586;28;20534;-42
2021/12/06 04:13:44;;;;;;;18.80;11.90;;;;;;;4.96;83.38;92399.97;5076995;28;20020;-42
2021/12/06 04:16:10;;;;;;;15.95;9.57;;;;;;;4.95;83.23;92411.47;5076912;28;20513;-42
2021/12/06 04:18:35;;;;;;;20.88;11.73;;;;;;;4.86;83.53;92401.00;5077556;28;20154;-46
2021/12/06 04:21:03;;;;;;;21.52;12.38;;;;;;;4.89;83.31;92403.41;5079650;28;20457;-43
2021/12/06 04:23:29;;;;;;;17.35;10.35;;;;;;;4.68;83.59;92396.53;5076555;28;20019;-42
2021/12/06 04:25:54;;;;;;;15.75;10.00;;;;;;;4.78;83.14;92389.28;5078311;28;20032;-43
2021/12/06 04:28:21;;;;;;;21.02;11.07;;;;;;;4.65;84.04;92389.38;5080065;28;20409;-42
2021/12/06 04:30:49;;;;;;;19.17;11.20;;;;;;;4.76;83.91;92386.34;5078943;28;20028;-44
2021/12/06 04:33:15;;;;;;;16.77;11.00;;;;;;;4.78;83.88;92378.34;5076315;28;20036;-44
2021/12/06 04:35:42;;;;;;;17.05;10.95;;;;;;;4.82;83.73;92378.72;5077737;28;20023;-43
2021/12/06 04:38:08;;;;;;;17.88;10.80;;;;;;;4.93;83.24;92381.19;5075725;28;20121;-48
2021/12/06 04:40:35;;;;;;;17.13;10.63;;;;;;;5.06;82.95;92381.81;5076921;28;20029;-48
2021/12/06 04:43:00;;;;;;;22.23;12.02;;;;;;;5.02;82.92;92369.75;5078811;28;20043;-45
2021/12/06 04:45:26;;;;;;;16.98;11.25;;;;;;;4.92;83.18;92374.22;5079584;28;20032;-44
2021/12/06 04:47:52;;;;;;;18.13;10.93;;;;;;;4.97;83.06;92376.84;5078838;28;20028;-44
2021/12/06 04:50:20;;;;;;;27.55;11.25;;;;;;;4.76;83.16;92370.69;5076969;28;20028;-43
2021/12/06 04:52:46;;;;;;;18.83;11.27;;;;;;;4.77;83.42;92363.19;5078052;28;20032;-44
2021/12/06 04:55:31;;;;;;;19.75;11.32;;;;;;;4.82;83.67;92371.28;5079812;28;20037;-43
2021/12/06 04:57:57;;;;;;;34.33;18.70;;;;;;;4.82;83.59;92371.28;5077446;28;20092;-40
2021/12/06 05:00:34;;;;;;;19.30;12.18;;;;;;;4.85;82.99;92377.66;5076823;28;20489;-44
2021/12/06 05:03:00;;;;;;;23.58;14.18;;;;;;;4.86;83.17;92393.53;5075132;28;20032;-41
2021/12/06 05:05:41;;;;;;;60.90;32.15;;;;;;;4.79;83.48;92401.69;5078648;28;20028;-41
2021/12/06 05:08:15;;;;;;;24.35;14.27;;;;;;;4.94;83.30;92399.78;5076391;28;20047;-42
2021/12/06 05:10:41;;;;;;;22.90;14.02;;;;;;;4.98;83.31;92413.13;5074486;28;20090;-41
2021/12/06 05:13:07;;;;;;;29.73;16.38;;;;;;;5.02;83.03;92414.25;5075951;28;20024;-39
2021/12/06 05:15:33;;;;;;;32.28;18.33;;;;;;;4.77;82.77;92363.94;5077525;28;20152;-40
2021/12/06 05:17:58;;;;;;;66.22;39.50;;;;;;;5.12;82.86;92409.00;5077171;28;20404;-40
2021/12/06 05:20:24;;;;;;;24.50;14.15;;;;;;;5.06;82.80;92409.16;5076118;28;20036;-44
2021/12/06 05:22:50;;;;;;;19.83;12.35;;;;;;;5.07;82.63;92420.81;5081281;28;20432;-41
2021/12/06 05:25:17;;;;;;;20.13;11.93;;;;;;;5.07;82.82;92426.28;5080643;28;20035;-43
2021/12/06 05:27:43;;;;;;;17.70;11.48;;;;;;;5.19;83.17;92435.69;5081637;28;20031;-39
2021/12/06 05:30:10;;;;;;;18.85;11.32;;;;;;;5.20;82.65;92434.41;5082671;28;20042;-44
2021/12/06 05:32:36;;;;;;;22.30;14.43;;;;;;;5.03;82.94;92412.22;5083814;28;20028;-41
2021/12/06 05:46:23;;;;;;;17.38;11.13;;;;;;;5.81;78.55;92447.13;5127996;27;20607;-41
2021/12/06 05:48:48;;;;;;;13.40;9.90;;;;;;;5.70;78.68;92452.91;5124350;28;20114;-42
2021/12/06 05:51:14;;;;;;;17.48;11.75;;;;;;;5.48;79.70;92453.53;5122690;27;20023;-43
2021/12/06 05:53:40;;;;;;;13.98;9.35;;;;;;;5.33;80.89;92442.50;5104897;28;20144;-44
2021/12/06 05:56:05;;;;;;;16.50;10.80;;;;;;;5.39;80.50;92441.06;5106013;28;20528;-44
2021/12/06 05:58:32;;;;;;;13.82;8.82;;;;;;;5.24;81.04;92440.28;5123529;28;20096;-45
2021/12/06 06:00:58;;;;;;;15.73;9.90;;;;;;;5.30;81.50;92429.91;5124429;28;20027;-42
2021/12/06 06:03:24;;;;;;;17.23;10.02;;;;;;;5.26;82.02;92440.47;5125844;27;20031;-42
2021/12/06 06:05:51;;;;;;;20.35;12.20;;;;;;;5.31;81.74;92423.16;5116559;27;20023;-44
2021/12/06 06:08:17;;;;;;;20.77;13.82;;;;;;;5.22;81.77;92420.91;5125466;27;20015;-46
2021/12/06 06:10:45;;;;;;;21.63;14.27;;;;;;;5.16;82.39;92429.28;5105434;27;20101;-42
2021/12/06 06:13:11;;;;;;;21.55;16.25;;;;;;;5.22;82.34;92440.06;5118735;28;20058;-42
2021/12/06 06:15:37;;;;;;;21.15;13.80;;;;;;;5.30;82.09;92449.06;5119069;27;20026;-45
2021/12/06 06:18:04;;;;;;;33.95;23.10;;;;;;;5.28;81.74;92462.56;5107092;28;20024;-43
2021/12/06 06:20:43;;;;;;;15.52;10.38;;;;;;;5.14;82.50;92464.66;5109785;27;20020;-42
2021/12/06 06:23:09;;;;;;;15.23;10.82;;;;;;;5.12;82.17;92461.00;5104975;28;20101;-43
2021/12/06 06:25:34;;;;;;;13.98;9.57;;;;;;;5.12;82.13;92455.50;5123310;28;20043;-42
2021/12/06 06:28:02;;;;;;;17.67;9.52;;;;;;;4.95;82.85;92455.22;5117412;27;20026;-42
2021/12/06 06:30:28;;;;;;;17.90;9.65;;;;;;;4.88;83.32;92444.94;5120090;28;20059;-44
2021/12/06 06:32:54;;;;;;;15.82;9.63;;;;;;;4.77;84.06;92447.97;5125123;27;20523;-44
2021/12/06 06:35:20;;;;;;;18.85;11.20;;;;;;;4.89;84.48;92441.69;5125068;27;20024;-44
2021/12/06 06:37:46;;;;;;;18.60;11.48;;;;;;;4.89;84.24;92438.97;5125247;27;20508;-44
2021/12/06 06:40:12;;;;;;;16.17;10.65;;;;;;;4.91;83.96;92416.53;5111526;27;20135;-47
2021/12/06 06:42:37;;;;;;;16.45;11.23;;;;;;;4.87;84.07;92410.69;5103649;28;20122;-43
2021/12/06 06:45:07;;;;;;;20.30;11.65;;;;;;;5.00;83.94;92419.50;5104031;28;20075;-42
2021/12/06 06:47:33;;;;;;;19.08;10.57;;;;;;;5.03;83.85;92418.44;5090228;28;20063;-44
2021/12/06 06:49:58;;;;;;;18.95;10.38;;;;;;;4.90;83.53;92402.13;5091083;28;20098;-47
2021/12/06 06:52:24;;;;;;;15.77;9.02;;;;;;;4.89;84.06;92408.13;5090741;28;20110;-41
2021/12/06 06:54:50;;;;;;;21.50;12.05;;;;;;;4.61;84.88;92376.78;5091037;28;20028;-42
2021/12/06 06:57:15;;;;;;;14.10;9.80;;;;;;;4.73;84.24;92384.69;5090716;28;20456;-44
2021/12/06 06:59:41;;;;;;;17.80;10.25;;;;;;;4.70;84.90;92415.84;5090907;28;20032;-42
2021/12/06 07:02:08;;;;;;;16.23;8.82;;;;;;;4.61;85.41;92408.84;5090466;28;20031;-45
2021/12/06 07:04:34;;;;;;;13.50;8.77;;;;;;;4.44;86.05;92397.63;5090753;28;20024;-44
2021/12/06 07:07:00;;;;;;;13.80;8.90;;;;;;;4.40;86.65;92405.38;5090679;28;20016;-43
2021/12/06 07:09:26;;;;;;;26.52;16.90;;;;;;;4.47;87.34;92405.47;5090300;28;20016;-43
2021/12/06 07:11:52;;;;;;;19.73;12.02;;;;;;;4.63;87.28;92425.47;5090088;28;20027;-45
2021/12/06 07:14:18;;;;;;;34.17;21.40;;;;;;;4.69;87.30;92409.66;5090551;28;20409;-45
2021/12/06 07:16:46;;;;;;;26.23;16.08;;;;;;;5.13;86.34;92424.88;5090537;28;20024;-42
2021/12/06 07:19:12;;;;;;;19.17;13.80;;;;;;;5.19;85.11;92413.78;5090631;28;20030;-44
2021/12/06 07:21:37;;;;;;;22.98;14.52;;;;;;;5.24;84.34;92399.25;5090573;28;20028;-45
2021/12/06 07:24:04;;;;;;;18.67;12.38;;;;;;;5.64;83.64;92433.19;5090051;28;20032;-44
2021/12/06 07:26:30;;;;;;;16.05;10.63;;;;;;;5.79;82.63;92432.50;5090011;28;20667;-45
2021/12/06 07:28:55;;;;;;;20.70;13.68;;;;;;;5.88;82.10;92424.53;5090112;28;20043;-44
2021/12/06 07:31:22;;;;;;;16.00;10.98;;;;;;;6.02;81.27;92419.66;5090278;28;20028;-43
2021/12/06 07:33:49;;;;;;;19.15;11.60;;;;;;;6.27;80.88;92408.91;5089864;28;20027;-44
2021/12/06 07:36:15;;;;;;;115.10;16.35;;;;;;;5.97;79.06;92371.22;5090262;28;20101;-45
2021/12/06 07:38:41;;;;;;;15.05;8.98;;;;;;;5.89;79.72;92406.81;5090550;28;20046;-45
2021/12/06 07:41:10;;;;;;;14.05;9.02;;;;;;;5.76;80.76;92401.44;5095502;28;20427;-42
2021/12/06 07:43:36;;;;;;;12.77;9.10;;;;;;;5.60;81.25;92416.38;5097943;28;20027;-45
2021/12/06 07:46:03;;;;;;;14.00;8.73;;;;;;;5.61;81.47;92434.25;5110216;28;20048;-45
2021/12/06 07:48:29;;;;;;;13.68;9.48;;;;;;;5.64;81.77;92421.47;5109376;28;20027;-43
2021/12/06 07:50:55;;;;;;;14.80;10.18;;;;;;;5.64;81.87;92444.13;5097495;28;20030;-45
2021/12/06 07:53:20;;;;;;;18.33;10.75;;;;;;;5.61;82.79;92445.19;5097727;27;20035;-42
2021/12/06 07:55:46;;;;;;;16.15;10.98;;;;;;;5.65;82.43;92440.09;5095042;28;20311;-46
2021/12/06 07:58:12;;;;;;;17.60;10.75;;;;;;;5.72;82.59;92435.94;5097710;28;20066;-45
2021/12/06 08:00:40;;;;;;;15.07;9.57;;;;;;;5.82;82.33;92436.91;5095033;28;20550;-47
2021/12/06 08:03:08;;;;;;;13.82;8.73;;;;;;;5.80;81.75;92440.19;5096152;28;20039;-44
2021/12/06 08:05:36;;;;;;;13.65;8.73;;;;;;;5.81;81.56;92430.69;5098296;28;20040;-44
2021/12/06 08:08:12;;;;;;;14.90;9.90;;;;;;;5.74;81.76;92436.84;5097664;28;20051;-45
2021/12/06 08:10:44;;;;;;;16.27;10.10;;;;;;;5.78;82.38;92452.97;5095606;28;20047;-42
2021/12/06 08:13:11;;;;;;;17.27;11.30;;;;;;;5.87;82.00;92436.75;5098183;28;20027;-46
2021/12/06 08:15:37;;;;;;;12.25;9.43;;;;;;;5.96;81.28;92449.19;5096424;28;20031;-44
2021/12/06 08:18:04;;;;;;;14.85;9.15;;;;;;;5.95;81.73;92434.78;5098139;28;20131;-46
2021/12/06 08:20:30;;;;;;;16.25;10.43;;;;;;;6.04;81.53;92434.25;5097480;28;20428;-45
2021/12/06 08:22:55;;;;;;;16.52;9.50;;;;;;;6.18;81.15;92429.34;5097385;28;20027;-45
2021/12/06 08:25:22;;;;;;;14.23;9.77;;;;;;;6.26;80.67;92445.84;5097548;28;20043;-45
2021/12/06 08:27:47;;;;;;;13.13;9.10;;;;;;;6.27;80.51;92439.06;5097698;28;20036;-46
2021/12/06 08:30:14;;;;;;;13.45;9.40;;;;;;;6.36;79.76;92425.56;5094804;28;21386;-44
2021/12/06 08:32:40;;;;;;;16.67;9.73;;;;;;;6.39;80.00;92427.19;5095410;28;20061;-48
2021/12/06 08:35:06;;;;;;;14.55;9.63;;;;;;;6.66;79.99;92420.09;5095028;28;20956;-45
2021/12/06 08:37:32;;;;;;;17.73;10.38;;;;;;;6.92;79.30;92426.50;5095736;28;20751;-47
2021/12/06 08:39:58;;;;;;;14.38;9.43;;;;;;;7.13;78.64;92427.00;5094009;28;20020;-48
2021/12/06 08:42:23;;;;;;;24.38;10.50;;;;;;;7.24;77.58;92419.13;5097275;28;20112;-43
2021/12/06 08:44:49;;;;;;;14.15;9.50;;;;;;;7.14;77.93;92418.25;5094604;28;20048;-43
2021/12/06 08:47:16;;;;;;;16.33;11.38;;;;;;;7.22;78.11;92410.72;5094984;28;20103;-45
2021/12/06 08:49:42;;;;;;;16.85;9.10;;;;;;;7.50;76.52;92407.72;5095634;28;20427;-43
2021/12/06 08:52:08;;;;;;;13.43;9.57;;;;;;;7.84;75.97;92423.72;5094572;28;20031;-47
2021/12/06 08:54:34;;;;;;;13.02;9.77;;;;;;;8.37;74.01;92412.50;5093779;28;20038;-45
2021/12/06 08:57:01;;;;;;;18.70;12.52;;;;;;;8.78;72.75;92400.09;5095797;27;20027;-41
2021/12/06 08:59:27;;;;;;;11.35;8.07;;;;;;;9.26;70.03;92397.84;5093424;28;20141;-44
2021/12/06 09:01:54;;;;;;;15.82;9.90;;;;;;;9.95;69.08;92404.81;5092837;28;20054;-44
2021/12/06 09:04:21;;;;;;;16.88;8.48;;;;;;;10.19;66.45;92403.97;5095079;28;20023;-44
2021/12/06 09:06:50;;;;;;;16.70;8.90;;;;;;;10.42;66.62;92406.41;5091524;28;20111;-45
2021/12/06 09:09:16;;;;;;;15.68;9.70;;;;;;;10.14;65.65;92406.97;5093180;28;20389;-45
2021/12/06 09:11:43;;;;;;;20.00;12.10;;;;;;;9.68;67.80;92404.03;5093142;28;20031;-44
2021/12/06 09:14:09;;;;;;;15.57;11.40;;;;;;;10.03;66.75;92388.19;5093974;28;20527;-46
2021/12/06 09:16:38;;;;;;;15.27;8.38;;;;;;;10.34;64.97;92384.47;5091877;28;20030;-47
2021/12/06 09:19:06;;;;;;;14.32;8.50;;;;;;;9.96;66.54;92384.22;5096190;28;20093;-46
2021/12/06 09:21:32;;;;;;;11.27;8.65;;;;;;;10.27;65.45;92382.53;5093850;28;20139;-45
2021/12/06 09:24:00;;;;;;;15.20;8.73;;;;;;;10.72;64.53;92377.69;5095011;28;20028;-45
2021/12/06 09:26:28;;;;;;;12.20;8.73;;;;;;;10.68;64.64;92382.88;5093738;28;20038;-45
2021/12/06 09:28:55;;;;;;;11.35;7.72;;;;;;;10.44;63.77;92376.97;5094049;28;20038;-44
2021/12/06 09:31:21;;;;;;;16.10;9.00;;;;;;;10.12;65.83;92351.66;5094413;28;20051;-44
2021/12/06 09:33:47;;;;;;;35.92;18.60;;;;;;;10.27;66.72;92354.22;5093875;28;20043;-45
2021/12/06 09:36:13;;;;;;;12.52;8.40;;;;;;;10.18;65.71;92355.63;5094491;28;20028;-42
2021/12/06 09:38:41;;;;;;;14.40;8.07;;;;;;;10.27;66.33;92360.47;5094784;28;20035;-44
2021/12/06 09:41:14;;;;;;;14.13;8.48;;;;;;;10.38;64.72;92357.19;5094144;28;20118;-44
2021/12/06 09:43:41;;;;;;;12.75;7.70;;;;;;;9.89;66.45;92344.41;5094186;28;20042;-43
2021/12/06 09:46:09;;;;;;;8.07;6.55;;;;;;;9.90;66.05;92358.91;5096163;28;20048;-42
2021/12/06 09:48:35;;;;;;;12.80;8.30;;;;;;;10.15;65.57;92356.78;5094855;28;20119;-43
2021/12/06 09:51:05;;;;;;;14.70;9.07;;;;;;;10.34;65.71;92350.63;5096689;28;20436;-45
2021/12/06 09:53:34;;;;;;;11.23;7.70;;;;;;;10.30;65.20;92339.28;5097103;28;20103;-45
2021/12/06 09:56:03;;;;;;;9.63;6.90;;;;;;;10.19;65.14;92346.06;5095215;28;20412;-44
2021/12/06 09:58:30;;;;;;;9.57;6.75;;;;;;;10.37;64.38;92339.16;5099792;28;20024;-46
2021/12/06 10:01:00;;;;;;;10.48;7.40;;;;;;;10.28;64.59;92337.09;5098154;28;20028;-45
2021/12/06 10:03:29;;;;;;;10.88;7.10;;;;;;;10.63;64.01;92337.69;5099472;28;20425;-44
2021/12/06 10:06:01;;;;;;;14.32;7.75;;;;;;;10.41;63.83;92328.44;5101032;28;20027;-43
2021/12/06 10:08:31;;;;;;;19.33;9.70;;;;;;;10.17;64.99;92326.59;5100180;28;20089;-43
2021/12/06 10:10:56;;;;;;;11.95;7.30;;;;;;;10.03;65.74;92317.19;5099418;28;20507;-43
2021/12/06 10:13:22;;;;;;;16.13;9.55;;;;;;;10.13;65.47;92289.69;5098928;28;20028;-48
2021/12/06 10:15:50;;;;;;;13.65;9.82;;;;;;;10.35;65.62;92314.19;5096067;28;20097;-47
2021/12/06 10:18:18;;;;;;;16.30;7.83;;;;;;;10.36;66.05;92315.66;5099662;28;20028;-45
2021/12/06 10:20:44;;;;;;;10.43;6.53;;;;;;;10.20;65.52;92308.19;5100778;28;20511;-44
2021/12/06 10:23:11;;;;;;;9.88;7.05;;;;;;;10.41;65.07;92305.66;5103892;28;20027;-45
2021/12/06 10:25:40;;;;;;;8.20;6.72;;;;;;;10.53;64.57;92306.56;5101492;28;21029;-43
2021/12/06 10:28:07;;;;;;;16.55;8.40;;;;;;;10.65;64.62;92301.97;5100957;28;20409;-41
2021/12/06 10:30:38;;;;;;;30.83;20.00;;;;;;;10.52;64.71;92289.28;5098221;28;20039;-43
2021/12/06 10:33:07;;;;;;;15.55;10.40;;;;;;;10.66;65.10;92293.09;5100254;28;20089;-43
2021/12/06 10:35:33;;;;;;;15.45;9.23;;;;;;;10.44;64.72;92276.88;5097526;28;20039;-46
2021/12/06 10:37:59;;;;;;;9.82;6.55;;;;;;;10.30;64.80;92287.59;5099485;28;20520;-43
2021/12/06 10:40:29;;;;;;;15.35;8.63;;;;;;;10.37;64.98;92277.75;5100155;28;20036;-42
2021/12/06 10:42:56;;;;;;;12.15;6.60;;;;;;;10.40;64.49;92282.84;5097266;28;20496;-42
2021/12/06 10:45:34;;;;;;;8.73;6.10;;;;;;;10.42;64.27;92280.22;5098950;28;20089;-41
2021/12/06 10:48:13;;;;;;;16.80;12.27;;;;;;;10.37;65.25;92267.44;5098929;28;20062;-42
2021/12/06 10:50:46;;;;;;;;;;;;;;;10.37;65.24;92270.19;5100029;28;20105;-43
2021/12/06 10:53:12;;;;;;;13.05;8.38;;;;;;;10.44;64.84;92263.09;5099630;28;19911;-44
2021/12/06 10:55:39;;;;;;;11.35;8.43;;;;;;;10.68;64.78;92261.44;5099688;28;20056;-42
2021/12/06 10:58:07;;;;;;;22.33;16.38;;;;;;;10.79;64.95;92255.31;5099059;28;20530;-47
2021/12/06 11:00:38;;;;;;;17.17;11.20;;;;;;;10.87;64.46;92256.66;5099705;28;20141;-45
2021/12/06 11:03:05;;;;;;;16.83;9.15;;;;;;;10.77;64.95;92253.16;5098779;28;20031;-47
2021/12/06 11:05:34;;;;;;;14.73;10.45;;;;;;;10.80;64.31;92240.97;5096698;28;20115;-44
2021/12/06 11:08:14;;;;;;;21.95;13.55;;;;;;;10.79;63.81;92233.97;5098169;28;20109;-44
2021/12/06 11:10:48;;;;;;;7.95;5.55;;;;;;;10.64;63.76;92234.25;5096463;28;20035;-44
2021/12/06 11:13:27;;;;;;;9.27;6.57;;;;;;;10.78;63.81;92235.28;5100777;28;20039;-44
2021/12/06 11:16:03;;;;;;;9.50;5.43;;;;;;;10.76;62.80;92237.91;5097382;28;20412;-45
2021/12/06 11:18:48;;;;;;;10.10;5.72;;;;;;;10.66;63.39;92254.44;5097325;28;20065;-44
2021/12/06 11:21:38;;;;;;;9.30;6.63;;;;;;;10.48;63.88;92253.09;5097534;28;20146;-44
2021/12/06 11:24:20;;;;;;;12.07;6.10;;;;;;;10.33;64.81;92250.56;5097475;28;20031;-44
2021/12/06 11:26:51;;;;;;;11.20;6.38;;;;;;;10.42;64.61;92260.19;5096935;28;20035;-44
2021/12/06 11:29:24;;;;;;;13.40;6.57;;;;;;;10.47;64.60;92257.16;5096712;28;20039;-44
2021/12/06 11:31:56;;;;;;;7.40;5.47;;;;;;;10.47;64.10;92248.88;5100081;28;20028;-41
2021/12/06 11:34:26;;;;;;;9.95;7.38;;;;;;;10.59;64.25;92251.81;5099118;28;20032;-41
2021/12/06 11:36:52;;;;;;;10.60;6.75;;;;;;;10.92;64.12;92243.88;5097112;28;20036;-43
2021/12/06 11:39:20;;;;;;;10.43;5.95;;;;;;;11.35;62.76;92243.59;5098702;28;20028;-43
2021/12/06 11:41:50;;;;;;;8.70;4.87;;;;;;;11.62;60.69;92250.97;5097761;28;20031;-45
2021/12/06 11:44:20;;;;;;;11.38;6.00;;;;;;;11.35;61.32;92253.91;5097720;28;20040;-45
2021/12/06 11:46:47;;;;;;;8.98;5.18;;;;;;;11.14;61.91;92240.69;5099318;28;20036;-44
2021/12/06 11:49:18;;;;;;;12.88;5.68;;;;;;;11.08;62.10;92236.75;5097246;28;20424;-47
2021/12/06 11:51:44;;;;;;;12.57;6.07;;;;;;;11.19;62.98;92220.34;5097511;28;20024;-44
2021/12/06 11:54:10;;;;;;;12.35;9.77;;;;;;;11.46;62.78;92222.91;5095739;28;20484;-43